createdAt,value
2023-02-15T00:00:28.415Z,67.14
2023-02-15T00:03:30.470Z,67.38
2023-02-15T00:06:32.522Z,66.88
2023-02-15T00:09:36.202Z,66.28
2023-02-15T00:12:38.813Z,66.22
2023-02-15T00:15:40.942Z,67.03
2023-02-15T00:18:43.040Z,66.64
2023-02-15T00:21:45.763Z,66.73
2023-02-15T00:24:47.896Z,66.56
2023-02-15T00:27:50.016Z,66.42
2023-02-15T00:30:52.042Z,66.50
2023-02-15T00:33:54.235Z,66.72
2023-02-15T00:36:56.384Z,66.10
2023-02-15T00:39:59.156Z,66.43
2023-02-15T00:43:01.844Z,66.07
2023-02-15T00:46:06.205Z,65.97
2023-02-15T00:49:08.231Z,65.94
2023-02-15T00:52:10.986Z,65.59
2023-02-15T00:55:12.981Z,65.79
2023-02-15T00:58:15.620Z,66.26
2023-02-15T01:01:19.921Z,65.52
2023-02-15T01:04:21.943Z,66.16
2023-02-15T01:07:24.057Z,65.93
2023-02-15T01:10:27.300Z,66.33
2023-02-15T01:13:30.878Z,65.85
2023-02-15T01:16:32.911Z,65.59
2023-02-15T01:19:35.318Z,65.72
2023-02-15T01:22:38.832Z,65.77
2023-02-15T01:25:40.999Z,65.34
2023-02-15T01:28:43.914Z,65.00
2023-02-15T01:31:46.112Z,64.67
2023-02-15T01:34:50.171Z,64.54
2023-02-15T01:37:54.819Z,63.93
2023-02-15T01:41:16.924Z,64.12
2023-02-15T01:44:58.843Z,64.74
2023-02-15T01:48:28.418Z,63.85
2023-02-15T01:51:34.437Z,64.79
2023-02-15T01:54:39.265Z,64.51
2023-02-15T01:57:43.164Z,64.32
2023-02-15T02:00:47.099Z,64.49
2023-02-15T02:04:25.177Z,64.25
2023-02-15T02:07:33.607Z,64.46
2023-02-15T02:10:35.638Z,64.63
2023-02-15T02:13:37.816Z,64.68
2023-02-15T02:16:48.588Z,63.26
2023-02-15T02:19:56.323Z,63.40
2023-02-15T02:23:07.215Z,63.71
2023-02-15T02:26:40.085Z,63.35
2023-02-15T02:30:21.010Z,63.78
2023-02-15T02:33:43.522Z,63.44
2023-02-15T02:36:59.428Z,64.13
2023-02-15T02:40:07.227Z,64.05
2023-02-15T02:43:20.543Z,64.08
2023-02-15T02:46:52.110Z,63.76
2023-02-15T02:50:00.910Z,63.71
2023-02-15T02:53:03.000Z,63.92
2023-02-15T02:56:24.910Z,64.35
2023-02-15T02:59:38.004Z,63.30
2023-02-15T03:02:45.078Z,63.59
2023-02-15T03:05:52.356Z,63.49
2023-02-15T03:09:02.920Z,63.29
2023-02-15T03:12:05.382Z,62.77
2023-02-15T03:15:22.487Z,63.32
2023-02-15T03:18:32.331Z,63.73
2023-02-15T03:22:20.813Z,64.01
2023-02-15T03:25:27.821Z,63.10
2023-02-15T03:28:37.947Z,64.12
2023-02-15T03:31:45.477Z,64.15
2023-02-15T03:34:47.771Z,63.23
2023-02-15T03:37:55.873Z,64.09
2023-02-15T03:41:12.478Z,64.59
2023-02-15T03:44:32.017Z,63.22
2023-02-15T03:47:39.154Z,63.03
2023-02-15T03:51:00.631Z,62.44
2023-02-15T03:54:13.694Z,62.28
2023-02-15T03:57:37.486Z,62.33
2023-02-15T04:01:05.581Z,62.77
2023-02-15T04:04:25.262Z,62.49
2023-02-15T04:07:27.622Z,63.06
2023-02-15T04:10:48.361Z,62.79
2023-02-15T04:13:57.473Z,63.17
2023-02-15T04:16:59.809Z,63.57
2023-02-15T04:20:20.651Z,63.54
2023-02-15T04:23:41.465Z,63.40
2023-02-15T04:26:43.549Z,62.89
2023-02-15T04:29:45.809Z,63.03
2023-02-15T04:32:48.673Z,62.56
2023-02-15T04:35:50.727Z,61.93
2023-02-15T04:38:52.869Z,62.76
2023-02-15T04:41:54.953Z,62.16
2023-02-15T04:44:57.639Z,62.20
2023-02-15T04:47:59.763Z,61.59
2023-02-15T04:51:07.844Z,62.11
2023-02-15T04:54:09.958Z,62.73
2023-02-15T04:57:12.044Z,62.62
2023-02-15T05:00:14.437Z,75.21
2023-02-15T05:03:17.649Z,76.64
2023-02-15T05:06:21.906Z,77.73
2023-02-15T05:09:23.883Z,76.30
2023-02-15T05:12:25.961Z,77.27
2023-02-15T05:15:28.028Z,77.52
2023-02-15T05:18:30.157Z,77.19
2023-02-15T05:21:33.515Z,81.74
2023-02-15T05:24:54.146Z,86.90
2023-02-15T05:28:14.922Z,93.75
2023-02-15T05:31:20.642Z,93.21
2023-02-15T05:34:22.778Z,90.94
2023-02-15T05:37:24.965Z,92.65
2023-02-15T05:40:27.255Z,94.41
2023-02-15T05:43:30.593Z,91.66
2023-02-15T05:46:32.896Z,88.50
2023-02-15T05:49:35.080Z,79.32
2023-02-15T05:52:37.178Z,78.10
2023-02-15T05:55:40.175Z,78.58
2023-02-15T05:58:42.854Z,82.87
2023-02-15T06:01:44.850Z,81.21
2023-02-15T06:04:46.882Z,81.63
2023-02-15T06:07:49.196Z,81.05
2023-02-15T06:10:51.444Z,80.98
2023-02-15T06:13:53.495Z,80.84
2023-02-15T06:16:55.413Z,79.59
2023-02-15T06:19:57.565Z,79.61
2023-02-15T06:22:59.531Z,78.33
2023-02-15T06:26:01.860Z,76.33
2023-02-15T06:29:04.270Z,75.45
2023-02-15T06:32:06.906Z,74.97
2023-02-15T06:35:09.040Z,73.18
2023-02-15T06:38:12.992Z,72.59
2023-02-15T06:41:15.271Z,71.93
2023-02-15T06:44:18.508Z,71.56
2023-02-15T06:47:20.685Z,72.55
2023-02-15T06:50:22.710Z,69.07
2023-02-15T06:53:24.794Z,70.19
2023-02-15T06:56:27.135Z,68.83
2023-02-15T06:59:29.159Z,68.32
2023-02-15T07:02:31.116Z,67.21
2023-02-15T07:05:35.406Z,65.78
2023-02-15T07:08:38.802Z,67.07
2023-02-15T07:11:58.914Z,65.96
2023-02-15T07:15:00.968Z,63.33
2023-02-15T07:18:02.970Z,63.26
2023-02-15T07:21:05.215Z,63.33
2023-02-15T07:24:07.628Z,62.82
2023-02-15T07:27:09.633Z,61.61
2023-02-15T07:30:14.772Z,63.42
2023-02-15T07:33:28.068Z,62.38
2023-02-15T07:36:30.031Z,63.57
2023-02-15T07:39:32.051Z,63.40
2023-02-15T07:42:34.021Z,64.20
2023-02-15T07:45:36.079Z,66.05
2023-02-15T07:48:39.329Z,63.81
2023-02-15T07:51:42.310Z,61.51
2023-02-15T07:54:44.357Z,57.47
2023-02-15T07:57:48.342Z,57.30
2023-02-15T08:00:59.689Z,55.10
2023-02-15T08:04:03.953Z,55.55
2023-02-15T08:07:06.493Z,55.20
2023-02-15T08:10:13.235Z,57.02
2023-02-15T08:13:16.239Z,55.50
2023-02-15T08:16:21.657Z,54.12
2023-02-15T08:19:32.950Z,55.96
2023-02-15T08:22:35.061Z,53.28
2023-02-15T08:25:37.027Z,53.02
2023-02-15T08:28:39.982Z,55.46
2023-02-15T08:31:43.264Z,52.50
2023-02-15T08:34:45.349Z,51.75
2023-02-15T08:37:47.612Z,52.26
2023-02-15T08:40:49.617Z,52.29
2023-02-15T08:43:57.024Z,49.97
2023-02-15T08:47:04.717Z,51.17
2023-02-15T08:50:07.613Z,52.67
2023-02-15T08:53:09.876Z,51.35
2023-02-15T08:56:13.119Z,51.63
2023-02-15T08:59:23.166Z,54.00
2023-02-15T09:02:25.257Z,52.08
2023-02-15T09:05:27.429Z,52.25
2023-02-15T09:08:30.113Z,53.18
2023-02-15T09:11:36.234Z,53.43
2023-02-15T09:14:38.393Z,53.02
2023-02-15T09:17:40.418Z,48.59
2023-02-15T09:20:42.509Z,47.35
2023-02-15T09:23:47.677Z,47.70
2023-02-15T09:26:50.336Z,50.42
2023-02-15T09:29:52.424Z,49.73
2023-02-15T09:32:54.591Z,47.39
2023-02-15T09:35:58.012Z,45.81
2023-02-15T09:39:04.836Z,48.74
2023-02-15T09:42:34.747Z,50.03
2023-02-15T09:46:06.178Z,50.76
2023-02-15T09:49:22.126Z,49.01
2023-02-15T09:52:44.098Z,47.71
2023-02-15T09:56:39.863Z,47.28
2023-02-15T10:00:00.452Z,49.15
2023-02-15T10:03:22.016Z,47.83
2023-02-15T10:06:45.291Z,49.00
2023-02-15T10:09:53.661Z,49.48
2023-02-15T10:13:22.539Z,49.67
2023-02-15T10:16:42.586Z,49.46
2023-02-15T10:19:50.834Z,50.99
2023-02-15T10:23:11.204Z,50.46
2023-02-15T10:26:44.534Z,50.78
2023-02-15T10:30:08.330Z,50.71
2023-02-15T10:33:19.208Z,51.23
2023-02-15T10:36:34.929Z,50.94
2023-02-15T10:39:55.369Z,51.75
2023-02-15T10:43:23.049Z,51.15
2023-02-15T10:46:56.417Z,51.50
2023-02-15T10:50:37.643Z,51.25
2023-02-15T10:53:52.176Z,50.07
2023-02-15T10:57:12.646Z,50.31
2023-02-15T11:00:32.188Z,51.69
2023-02-15T11:04:17.458Z,52.46
2023-02-15T11:07:36.457Z,52.06
2023-02-15T11:10:53.407Z,53.40
2023-02-15T11:14:03.032Z,53.54
2023-02-15T11:17:15.678Z,53.45
2023-02-15T11:20:17.834Z,52.11
2023-02-15T11:23:23.178Z,54.37
2023-02-15T11:26:26.302Z,55.79
2023-02-15T11:29:40.482Z,56.37
2023-02-15T11:32:53.334Z,56.47
2023-02-15T11:36:08.000Z,54.25
2023-02-15T11:39:17.286Z,55.54
2023-02-15T11:42:24.664Z,55.21
2023-02-15T11:45:30.398Z,57.06
2023-02-15T11:48:33.738Z,56.37
2023-02-15T11:51:36.716Z,56.76
2023-02-15T11:54:43.994Z,56.29
2023-02-15T11:58:02.499Z,56.66
2023-02-15T12:01:36.071Z,55.52
2023-02-15T12:04:41.736Z,56.06
2023-02-15T12:07:50.653Z,55.31
2023-02-15T12:11:01.988Z,54.61
2023-02-15T12:14:07.180Z,53.33
2023-02-15T12:17:14.633Z,53.15
2023-02-15T12:20:16.682Z,53.06
2023-02-15T12:23:19.892Z,52.70
2023-02-15T12:26:38.259Z,53.13
2023-02-15T12:30:02.231Z,53.88
2023-02-15T12:33:11.669Z,52.85
2023-02-15T12:36:20.909Z,53.89
2023-02-15T12:39:33.132Z,51.94
2023-02-15T12:42:46.037Z,53.65
2023-02-15T12:45:57.071Z,53.34
2023-02-15T12:49:11.423Z,54.28
2023-02-15T12:52:19.177Z,54.15
2023-02-15T12:55:27.612Z,51.83
2023-02-15T12:58:31.389Z,53.84
2023-02-15T13:01:34.706Z,53.21
2023-02-15T13:04:37.000Z,52.59
2023-02-15T13:07:39.099Z,53.00
2023-02-15T13:11:03.370Z,53.49
2023-02-15T13:14:23.624Z,52.31
2023-02-15T13:17:31.096Z,52.35
2023-02-15T13:20:35.549Z,54.41
2023-02-15T13:23:40.270Z,54.79
2023-02-15T13:26:48.305Z,54.61
2023-02-15T13:29:59.557Z,54.74
2023-02-15T13:33:16.378Z,53.24
2023-02-15T13:36:44.482Z,56.10
2023-02-15T13:39:50.058Z,54.77
2023-02-15T13:43:04.319Z,54.71
2023-02-15T13:46:24.775Z,56.04
2023-02-15T13:49:45.077Z,60.04
2023-02-15T13:53:13.043Z,65.61
2023-02-15T13:56:53.294Z,76.48
2023-02-15T14:00:14.906Z,71.52
2023-02-15T14:03:49.769Z,69.08
2023-02-15T14:07:06.253Z,67.92
2023-02-15T14:10:17.138Z,68.33
2023-02-15T14:13:51.162Z,66.81
2023-02-15T14:17:23.591Z,67.63
2023-02-15T14:20:52.863Z,64.27
2023-02-15T14:24:28.257Z,63.73
2023-02-15T14:27:48.593Z,62.50
2023-02-15T14:30:52.347Z,62.23
2023-02-15T14:33:57.148Z,61.33
2023-02-15T14:36:59.759Z,60.23
2023-02-15T14:40:32.303Z,62.88
2023-02-15T14:43:52.754Z,70.39
2023-02-15T14:46:57.468Z,70.03
2023-02-15T14:49:59.577Z,70.97
2023-02-15T14:53:23.320Z,72.83
2023-02-15T14:56:27.571Z,73.54
2023-02-15T14:59:46.138Z,73.16
2023-02-15T15:02:51.575Z,75.67
2023-02-15T15:06:00.366Z,76.36
2023-02-15T15:09:29.651Z,69.95
2023-02-15T15:12:34.541Z,70.25
2023-02-15T15:15:53.163Z,69.84
2023-02-15T15:19:10.576Z,69.39
2023-02-15T15:22:27.443Z,69.83
2023-02-15T15:25:46.814Z,71.33
2023-02-15T15:28:51.814Z,68.87
2023-02-15T15:31:57.668Z,70.76
2023-02-15T15:35:14.964Z,65.92
2023-02-15T15:38:24.666Z,69.38
2023-02-15T15:41:43.169Z,69.51
2023-02-15T15:45:24.094Z,73.38
2023-02-15T15:48:39.303Z,70.07
2023-02-15T15:51:43.505Z,68.82
2023-02-15T15:54:48.765Z,70.26
2023-02-15T15:57:57.960Z,69.83
2023-02-15T16:01:10.187Z,68.19
2023-02-15T16:04:25.353Z,66.52
2023-02-15T16:07:27.817Z,65.91
2023-02-15T16:10:33.769Z,65.81
2023-02-15T16:13:37.504Z,66.67
2023-02-15T16:16:43.962Z,66.61
2023-02-15T16:19:49.392Z,69.23
2023-02-15T16:22:58.472Z,72.22
2023-02-15T16:26:15.605Z,76.90
2023-02-15T16:29:20.439Z,77.06
2023-02-15T16:32:28.007Z,77.65
2023-02-15T16:35:30.253Z,76.19
2023-02-15T16:38:58.335Z,75.27
2023-02-15T16:42:03.240Z,76.34
2023-02-15T16:45:09.019Z,77.09
2023-02-15T16:48:23.614Z,81.89
2023-02-15T16:51:29.010Z,79.97
2023-02-15T16:54:32.563Z,79.40
2023-02-15T16:57:38.271Z,78.59
2023-02-15T17:00:42.205Z,76.70
2023-02-15T17:03:44.454Z,76.37
2023-02-15T17:07:04.909Z,76.41
2023-02-15T17:10:31.864Z,75.19
2023-02-15T17:13:33.863Z,74.51
2023-02-15T17:16:51.437Z,72.18
2023-02-15T17:19:56.184Z,69.90
2023-02-15T17:22:58.769Z,67.87
2023-02-15T17:26:12.312Z,68.82
2023-02-15T17:29:20.586Z,70.43
2023-02-15T17:32:26.243Z,71.16
2023-02-15T17:35:35.644Z,71.53
2023-02-15T17:38:40.541Z,72.09
2023-02-15T17:41:42.843Z,73.49
2023-02-15T17:44:44.893Z,73.87
2023-02-15T17:47:48.983Z,73.32
2023-02-15T17:50:52.219Z,75.30
2023-02-15T17:54:16.092Z,74.08
2023-02-15T17:57:18.288Z,72.99
2023-02-15T18:00:39.076Z,72.13
2023-02-15T18:04:02.854Z,71.04
2023-02-15T18:07:27.482Z,70.00
2023-02-15T18:10:52.872Z,69.39
2023-02-15T18:14:03.881Z,68.00
2023-02-15T18:17:06.210Z,67.94
2023-02-15T18:20:32.176Z,66.96
2023-02-15T18:23:34.527Z,66.04
2023-02-15T18:26:37.887Z,66.56
2023-02-15T18:29:41.406Z,66.72
2023-02-15T18:32:46.162Z,66.85
2023-02-15T18:35:52.275Z,66.47
2023-02-15T18:38:58.103Z,67.57
2023-02-15T18:42:04.535Z,68.19
2023-02-15T18:45:37.432Z,69.05
2023-02-15T18:48:39.545Z,70.05
2023-02-15T18:51:43.076Z,71.93
2023-02-15T18:54:46.790Z,72.87
2023-02-15T18:57:51.631Z,75.87
2023-02-15T19:00:56.048Z,76.34
2023-02-15T19:03:59.928Z,71.05
2023-02-15T19:07:03.360Z,72.86
2023-02-15T19:10:14.636Z,73.57
2023-02-15T19:13:19.808Z,73.12
2023-02-15T19:16:43.443Z,73.26
2023-02-15T19:19:49.404Z,72.81
2023-02-15T19:22:56.468Z,73.64
2023-02-15T19:26:02.345Z,72.42
2023-02-15T19:29:11.253Z,73.09
2023-02-15T19:32:18.006Z,75.77
2023-02-15T19:35:30.244Z,79.56
2023-02-15T19:38:37.268Z,82.59
2023-02-15T19:41:42.824Z,84.89
2023-02-15T19:44:48.827Z,81.09
2023-02-15T19:47:55.658Z,79.10
2023-02-15T19:51:01.298Z,78.26
2023-02-15T19:54:03.640Z,78.01
2023-02-15T19:57:08.433Z,77.89
2023-02-15T20:00:29.951Z,79.19
2023-02-15T20:03:33.298Z,78.11
2023-02-15T20:06:35.301Z,78.72
2023-02-15T20:09:40.923Z,77.09
2023-02-15T20:12:43.094Z,77.62
2023-02-15T20:15:46.126Z,77.87
2023-02-15T20:18:48.591Z,76.79
2023-02-15T20:21:54.682Z,76.08
2023-02-15T20:24:57.196Z,77.00
2023-02-15T20:28:01.517Z,76.71
2023-02-15T20:31:04.007Z,75.95
2023-02-15T20:34:06.208Z,74.92
2023-02-15T20:37:26.559Z,75.77
2023-02-15T20:40:32.767Z,76.32
2023-02-15T20:43:34.854Z,74.76
2023-02-15T20:46:36.845Z,74.86
2023-02-15T20:49:39.418Z,76.59
2023-02-15T20:52:44.140Z,78.42
2023-02-15T20:55:46.173Z,74.06
2023-02-15T20:58:48.643Z,74.21
2023-02-15T21:01:52.513Z,74.51
2023-02-15T21:04:55.658Z,71.46
2023-02-15T21:07:59.284Z,70.12
2023-02-15T21:11:01.976Z,69.58
2023-02-15T21:14:04.262Z,67.29
2023-02-15T21:17:06.698Z,65.05
2023-02-15T21:20:14.194Z,65.10
2023-02-15T21:23:19.980Z,63.94
2023-02-15T21:26:23.185Z,59.73
2023-02-15T21:29:28.190Z,57.30
2023-02-15T21:32:32.507Z,58.58
2023-02-15T21:35:34.679Z,58.66
2023-02-15T21:38:37.104Z,54.82
2023-02-15T21:41:58.489Z,55.11
2023-02-15T21:45:19.419Z,57.21
2023-02-15T21:48:22.614Z,54.88
2023-02-15T21:51:44.582Z,54.76
2023-02-15T21:54:47.142Z,55.48
2023-02-15T21:57:49.125Z,56.90
2023-02-15T22:00:54.696Z,53.38
2023-02-15T22:03:58.854Z,50.78
2023-02-15T22:07:00.869Z,52.70
2023-02-15T22:10:03.091Z,52.78
2023-02-15T22:13:05.750Z,50.38
2023-02-15T22:16:14.740Z,52.00
2023-02-15T22:19:16.885Z,52.83
2023-02-15T22:22:18.995Z,50.09
2023-02-15T22:25:24.084Z,50.27
2023-02-15T22:28:34.800Z,49.97
2023-02-15T22:31:36.968Z,50.52
2023-02-15T22:34:39.411Z,48.23
2023-02-15T22:37:42.761Z,49.34
2023-02-15T22:40:46.806Z,51.02
2023-02-15T22:43:49.498Z,48.61
2023-02-15T22:46:52.235Z,47.75
2023-02-15T22:49:57.175Z,47.81
2023-02-15T22:53:01.275Z,49.47
2023-02-15T22:56:07.845Z,46.28
2023-02-15T22:59:16.308Z,47.30
2023-02-15T23:02:18.495Z,47.83
2023-02-15T23:05:24.161Z,47.00
2023-02-15T23:08:26.143Z,45.11
2023-02-15T23:11:28.903Z,45.00
2023-02-15T23:14:36.689Z,47.25
2023-02-15T23:17:38.706Z,46.23
2023-02-15T23:20:40.897Z,51.04
2023-02-15T23:23:47.788Z,54.45
2023-02-15T23:26:50.798Z,56.65
2023-02-15T23:29:52.801Z,56.37
2023-02-15T23:32:58.535Z,57.36
2023-02-15T23:36:00.518Z,57.67
2023-02-15T23:39:32.868Z,57.44
2023-02-15T23:42:36.006Z,57.71
2023-02-15T23:45:39.592Z,58.64
2023-02-15T23:48:42.638Z,57.72
2023-02-15T23:51:54.485Z,57.09
2023-02-15T23:54:56.476Z,56.95
2023-02-15T23:57:58.600Z,57.33
